createdAt,value
2018-04-26T00:02:45.542Z,28.74
2018-04-26T00:05:17.213Z,28.73
2018-04-26T00:07:49.818Z,28.72
2018-04-26T00:10:21.925Z,28.72
2018-04-26T00:15:13.215Z,28.74
2018-04-26T00:19:32.491Z,28.73
2018-04-26T00:22:04.214Z,28.73
2018-04-26T00:25:47.515Z,28.71
2018-04-26T00:28:19.223Z,28.71
2018-04-26T00:30:50.577Z,28.72
2018-04-26T00:33:22.299Z,28.72
2018-04-26T00:35:53.745Z,28.72
2018-04-26T00:40:49.509Z,28.74
2018-04-26T00:43:21.229Z,28.73
2018-04-26T00:45:52.825Z,28.72
2018-04-26T00:48:24.849Z,28.72
2018-04-26T00:50:56.836Z,28.72
2018-04-26T00:53:31.131Z,28.72
2018-04-26T00:56:03.150Z,28.72
2018-04-26T00:58:39.391Z,28.73
2018-04-26T01:01:11.309Z,28.73
2018-04-26T01:03:41.772Z,28.72
2018-04-26T01:06:13.498Z,28.73
2018-04-26T01:08:45.262Z,28.73
2018-04-26T01:11:17.351Z,28.72
2018-04-26T01:13:51.175Z,28.72
2018-04-26T01:16:23.687Z,28.71
2018-04-26T01:18:56.364Z,28.72
2018-04-26T01:22:28.373Z,28.67
2018-04-26T01:25:00.252Z,28.70
2018-04-26T01:27:30.932Z,28.69
2018-04-26T01:30:03.161Z,28.69
2018-04-26T01:32:34.841Z,28.69
2018-04-26T01:35:06.876Z,28.68
2018-04-26T01:37:49.983Z,28.69
2018-04-26T01:40:22.963Z,28.69
2018-04-26T01:42:55.884Z,28.68
2018-04-26T01:45:27.863Z,28.69
2018-04-26T01:48:01.253Z,28.68
2018-04-26T01:50:32.906Z,28.69
2018-04-26T01:53:04.965Z,28.69
2018-04-26T01:55:37.158Z,28.69
2018-04-26T01:58:08.888Z,28.68
2018-04-26T02:00:41.983Z,28.69
2018-04-26T02:03:13.998Z,28.68
2018-04-26T02:05:45.878Z,28.67
2018-04-26T02:08:19.461Z,28.67
2018-04-26T02:10:51.263Z,28.67
2018-04-26T02:13:22.885Z,28.67
2018-04-26T02:18:26.916Z,28.65
2018-04-26T02:21:00.937Z,28.68
2018-04-26T02:25:52.550Z,28.69
2018-04-26T02:28:24.253Z,28.70
2018-04-26T02:30:55.886Z,28.70
2018-04-26T02:33:27.858Z,28.70
2018-04-26T02:36:01.278Z,28.71
2018-04-26T02:38:33.389Z,28.70
2018-04-26T02:41:05.235Z,28.70
2018-04-26T02:43:37.655Z,28.70
2018-04-26T02:46:11.177Z,28.70
2018-04-26T02:49:36.358Z,28.62
2018-04-26T02:52:09.461Z,28.59
2018-04-26T02:54:42.174Z,28.60
2018-04-26T02:59:24.670Z,28.66
2018-04-26T03:01:57.838Z,28.66
2018-04-26T03:04:30.849Z,28.66
2018-04-26T03:07:04.073Z,28.68
2018-04-26T03:09:37.474Z,28.68
2018-04-26T03:12:11.761Z,28.68
2018-04-26T03:17:14.565Z,28.65
2018-04-26T03:19:47.212Z,28.67
2018-04-26T03:22:20.001Z,28.66
2018-04-26T03:24:53.424Z,28.65
2018-04-26T03:28:05.280Z,28.62
2018-04-26T03:30:38.657Z,28.61
2018-04-26T03:33:12.478Z,28.60
2018-04-26T03:35:45.475Z,28.59
2018-04-26T03:38:18.206Z,28.58
2018-04-26T03:40:51.176Z,28.57
2018-04-26T03:43:24.281Z,28.57
2018-04-26T03:45:55.259Z,28.56
2018-04-26T03:48:26.472Z,28.56
2018-04-26T03:50:59.896Z,28.56
2018-04-26T03:53:32.634Z,28.60
2018-04-26T03:57:51.382Z,28.64
2018-04-26T04:00:34.554Z,28.65
2018-04-26T04:03:18.372Z,28.67
2018-04-26T04:10:33.777Z,27.50
2018-04-26T04:13:08.614Z,26.75
2018-04-26T04:15:42.302Z,26.39
2018-04-26T04:18:15.196Z,26.22
2018-04-26T04:20:46.322Z,26.08
2018-04-26T04:23:19.100Z,25.98
2018-04-26T04:25:52.561Z,25.91
2018-04-26T04:28:26.033Z,25.80
2018-04-26T04:30:59.144Z,25.70
2018-04-26T04:33:30.261Z,25.62
2018-04-26T04:36:03.301Z,25.50
2018-04-26T04:38:36.422Z,25.42
2018-04-26T04:41:10.116Z,25.37
2018-04-26T04:43:45.204Z,25.30
2018-04-26T04:46:17.883Z,25.30
2018-04-26T04:48:51.464Z,25.30
2018-04-26T04:51:24.733Z,25.26
2018-04-26T04:53:57.603Z,25.16
2018-04-26T04:56:31.124Z,25.13
2018-04-26T04:59:02.334Z,25.13
2018-04-26T05:01:35.364Z,25.09
2018-04-26T05:04:08.400Z,25.01
2018-04-26T05:06:41.353Z,24.92
2018-04-26T05:09:15.053Z,24.90
2018-04-26T05:11:48.167Z,24.87
2018-04-26T05:14:20.317Z,24.84
2018-04-26T05:16:53.329Z,24.82
2018-04-26T05:19:26.717Z,24.79
2018-04-26T05:22:00.129Z,24.75
2018-04-26T05:24:32.744Z,24.74
2018-04-26T05:27:06.127Z,24.70
2018-04-26T05:29:37.220Z,24.71
2018-04-26T05:32:10.895Z,24.71
2018-04-26T05:34:43.872Z,24.62
2018-04-26T05:37:16.920Z,24.62
2018-04-26T05:39:49.805Z,24.63
2018-04-26T05:42:23.446Z,24.61
2018-04-26T05:44:56.259Z,24.58
2018-04-26T05:47:29.167Z,24.56
2018-04-26T05:50:00.940Z,24.55
2018-04-26T05:52:34.067Z,24.51
2018-04-26T05:55:07.666Z,24.48
2018-04-26T05:57:41.131Z,24.48
2018-04-26T06:00:27.234Z,24.48
2018-04-26T06:02:59.127Z,24.51
2018-04-26T06:05:32.382Z,24.46
2018-04-26T06:08:05.365Z,24.39
2018-04-26T06:10:38.758Z,24.37
2018-04-26T06:13:12.054Z,24.40
2018-04-26T06:15:45.360Z,24.36
2018-04-26T06:18:18.563Z,24.37
2018-04-26T06:20:52.161Z,24.31
2018-04-26T06:23:25.557Z,24.28
2018-04-26T06:25:59.169Z,24.28
2018-04-26T06:28:31.442Z,24.31
2018-04-26T06:31:04.693Z,24.35
2018-04-26T06:33:37.758Z,24.35
2018-04-26T06:36:11.355Z,24.35
2018-04-26T06:38:44.986Z,24.33
2018-04-26T06:41:17.937Z,24.32
2018-04-26T06:43:50.789Z,24.31
2018-04-26T06:46:24.490Z,24.24
2018-04-26T06:48:58.497Z,24.23
2018-04-26T06:51:31.348Z,24.29
2018-04-26T06:54:04.696Z,24.21
2018-04-26T06:57:13.075Z,24.08
2018-04-26T06:59:46.174Z,24.08
2018-04-26T07:02:19.098Z,24.06
2018-04-26T07:04:51.749Z,24.02
2018-04-26T07:07:25.305Z,24.01
2018-04-26T07:09:58.617Z,23.98
2018-04-26T07:12:31.804Z,23.92
2018-04-26T07:15:05.090Z,23.91
2018-04-26T07:17:37.789Z,23.86
2018-04-26T07:20:11.268Z,23.79
2018-04-26T07:22:44.362Z,23.78
2018-04-26T07:25:17.533Z,23.75
2018-04-26T07:27:51.402Z,23.71
2018-04-26T07:30:25.410Z,23.80
2018-04-26T07:32:58.557Z,23.84
2018-04-26T07:35:31.378Z,23.84
2018-04-26T07:38:04.096Z,23.84
2018-04-26T07:40:37.366Z,23.81
2018-04-26T07:43:10.189Z,23.73
2018-04-26T07:45:42.792Z,23.70
2018-04-26T07:48:15.688Z,23.71
2018-04-26T07:50:49.148Z,23.72
2018-04-26T07:53:22.498Z,23.67
2018-04-26T07:55:55.186Z,23.70
2018-04-26T07:58:26.928Z,23.75
2018-04-26T08:01:00.294Z,23.72
2018-04-26T08:03:33.193Z,23.68
2018-04-26T08:06:06.264Z,23.63
2018-04-26T08:09:58.933Z,23.53
2018-04-26T08:12:32.321Z,23.48
2018-04-26T08:15:05.264Z,23.53
2018-04-26T08:17:38.211Z,23.51
2018-04-26T08:20:10.390Z,23.47
2018-04-26T08:22:43.001Z,23.43
2018-04-26T08:25:15.516Z,23.39
2018-04-26T08:27:48.742Z,23.39
2018-04-26T08:30:21.745Z,23.36
2018-04-26T08:32:54.960Z,23.36
2018-04-26T08:35:28.386Z,23.38
2018-04-26T08:38:02.545Z,23.34
2018-04-26T08:40:35.225Z,23.34
2018-04-26T08:43:08.520Z,23.28
2018-04-26T08:45:41.166Z,23.25
2018-04-26T08:48:14.513Z,23.31
2018-04-26T08:50:48.403Z,23.28
2018-04-26T08:53:21.226Z,23.29
2018-04-26T08:55:54.533Z,23.31
2018-04-26T08:58:27.501Z,23.29
2018-04-26T09:01:01.065Z,23.22
2018-04-26T09:03:34.371Z,23.20
2018-04-26T09:06:07.289Z,23.23
2018-04-26T09:08:40.648Z,23.16
2018-04-26T09:11:14.670Z,23.13
2018-04-26T09:13:48.055Z,23.15
2018-04-26T09:16:20.900Z,23.12
2018-04-26T09:18:54.647Z,23.16
2018-04-26T09:21:28.598Z,23.19
2018-04-26T09:23:59.980Z,23.18
2018-04-26T09:26:33.016Z,23.11
2018-04-26T09:29:06.054Z,23.03
2018-04-26T09:31:38.897Z,23.01
2018-04-26T09:34:12.779Z,22.97
2018-04-26T09:36:48.870Z,22.92
2018-04-26T09:39:22.365Z,22.92
2018-04-26T09:41:55.501Z,22.95
2018-04-26T09:44:29.649Z,22.97
2018-04-26T09:47:02.446Z,22.99
2018-04-26T09:49:35.580Z,22.99
2018-04-26T09:52:09.364Z,23.00
2018-04-26T09:54:42.405Z,23.04
2018-04-26T09:57:15.337Z,23.07
2018-04-26T09:59:48.030Z,23.03
2018-04-26T10:02:20.641Z,23.03
2018-04-26T10:05:00.386Z,22.97
2018-04-26T10:07:33.226Z,22.94
2018-04-26T10:10:06.551Z,22.99
2018-04-26T10:12:39.179Z,23.00
2018-04-26T10:15:11.952Z,23.02
2018-04-26T10:17:45.075Z,23.09
2018-04-26T10:20:18.660Z,23.09
2018-04-26T10:22:51.561Z,23.04
2018-04-26T10:25:24.603Z,23.01
2018-04-26T10:27:57.433Z,23.07
2018-04-26T10:30:30.451Z,23.07
2018-04-26T10:33:03.373Z,23.04
2018-04-26T10:35:36.422Z,23.01
2018-04-26T10:38:08.884Z,22.96
2018-04-26T10:40:42.149Z,22.90
2018-04-26T10:43:14.448Z,22.88
2018-04-26T10:45:47.381Z,22.90
2018-04-26T10:48:20.509Z,22.96
2018-04-26T10:50:53.489Z,22.94
2018-04-26T10:53:27.378Z,22.84
2018-04-26T10:55:59.934Z,22.80
2018-04-26T10:58:32.941Z,22.84
2018-04-26T11:01:06.424Z,22.78
2018-04-26T11:03:40.300Z,22.74
2018-04-26T11:06:13.299Z,22.73
2018-04-26T11:08:46.627Z,22.71
2018-04-26T11:11:20.079Z,22.68
2018-04-26T11:13:53.021Z,22.67
2018-04-26T11:16:25.520Z,22.67
2018-04-26T11:18:58.558Z,22.64
2018-04-26T11:21:32.756Z,22.62
2018-04-26T11:24:06.414Z,22.63
2018-04-26T11:26:40.053Z,22.62
2018-04-26T11:29:12.997Z,22.63
2018-04-26T11:31:45.921Z,22.70
2018-04-26T11:34:19.202Z,22.70
2018-04-26T11:36:51.528Z,22.69
2018-04-26T11:39:24.414Z,22.67
2018-04-26T11:41:57.518Z,22.60
2018-04-26T11:44:30.070Z,22.53
2018-04-26T11:47:02.931Z,22.58
2018-04-26T11:49:36.475Z,22.59
2018-04-26T11:52:09.868Z,22.66
2018-04-26T11:54:43.674Z,22.65
2018-04-26T11:57:17.061Z,22.60
2018-04-26T11:59:50.510Z,22.61
2018-04-26T12:02:24.038Z,22.58
2018-04-26T12:04:56.059Z,22.57
2018-04-26T12:07:29.834Z,22.61
2018-04-26T12:10:03.415Z,22.59
2018-04-26T12:12:36.975Z,22.54
2018-04-26T12:15:10.065Z,22.55
2018-04-26T12:17:43.001Z,22.58
2018-04-26T12:20:16.385Z,22.55
2018-04-26T12:22:49.290Z,22.52
2018-04-26T12:25:22.477Z,22.47
2018-04-26T12:27:56.025Z,22.35
2018-04-26T12:30:29.016Z,22.33
2018-04-26T12:33:02.442Z,22.36
2018-04-26T12:35:35.368Z,22.30
2018-04-26T12:38:08.218Z,22.25
2018-04-26T12:40:41.573Z,22.25
2018-04-26T12:43:15.416Z,22.21
2018-04-26T12:45:48.627Z,22.17
2018-04-26T12:48:22.432Z,22.20
2018-04-26T12:50:55.716Z,22.18
2018-04-26T12:53:29.286Z,22.18
2018-04-26T12:56:02.775Z,22.18
2018-04-26T12:58:35.402Z,22.17
2018-04-26T13:01:08.552Z,22.23
2018-04-26T13:03:41.962Z,22.22
2018-04-26T13:06:15.398Z,22.20
2018-04-26T13:08:48.593Z,22.14
2018-04-26T13:11:21.217Z,22.08
2018-04-26T13:13:53.516Z,22.04
2018-04-26T13:16:26.890Z,22.00
2018-04-26T13:19:00.537Z,21.94
2018-04-26T13:21:33.509Z,21.89
2018-04-26T13:24:06.070Z,21.87
2018-04-26T13:26:38.398Z,21.83
2018-04-26T13:29:11.436Z,21.77
2018-04-26T13:31:44.575Z,21.77
2018-04-26T13:34:17.401Z,21.73
2018-04-26T13:36:50.585Z,21.74
2018-04-26T13:39:23.386Z,21.72
2018-04-26T13:41:56.212Z,21.67
2018-04-26T13:44:28.385Z,21.65
2018-04-26T13:47:01.710Z,21.62
2018-04-26T13:49:34.633Z,21.63
2018-04-26T13:52:07.137Z,21.66
2018-04-26T13:54:40.525Z,21.65
2018-04-26T13:57:14.194Z,21.69
2018-04-26T13:59:47.634Z,21.72
2018-04-26T14:02:20.874Z,21.79
2018-04-26T14:04:53.643Z,21.76
2018-04-26T14:07:26.373Z,21.81
2018-04-26T14:09:59.585Z,21.84
2018-04-26T14:12:32.513Z,21.86
2018-04-26T14:15:05.813Z,21.90
2018-04-26T14:17:39.070Z,21.83
2018-04-26T14:20:12.060Z,21.77
2018-04-26T14:22:44.913Z,21.73
2018-04-26T14:25:18.011Z,21.69
2018-04-26T14:27:51.381Z,21.69
2018-04-26T14:30:25.995Z,21.70
2018-04-26T14:33:00.440Z,21.77
2018-04-26T14:35:34.469Z,21.84
2018-04-26T14:38:08.037Z,21.80
2018-04-26T14:40:41.007Z,21.77
2018-04-26T14:45:02.507Z,21.75
2018-04-26T14:47:35.537Z,21.72
2018-04-26T14:50:08.018Z,21.68
2018-04-26T14:52:41.852Z,21.66
2018-04-26T14:55:15.309Z,21.70
2018-04-26T14:57:48.403Z,21.72
2018-04-26T15:00:21.506Z,21.69
2018-04-26T15:02:54.675Z,21.76
2018-04-26T15:05:27.709Z,21.75
2018-04-26T15:08:01.527Z,21.79
2018-04-26T15:10:35.510Z,21.79
2018-04-26T15:13:08.640Z,21.80
2018-04-26T15:15:41.935Z,21.80
2018-04-26T15:18:15.380Z,21.78
2018-04-26T15:20:49.305Z,21.77
2018-04-26T15:23:21.530Z,21.84
2018-04-26T15:25:54.421Z,21.86
2018-04-26T15:28:27.596Z,21.90
2018-04-26T15:31:00.812Z,21.90
2018-04-26T15:33:33.598Z,21.93
2018-04-26T15:36:07.463Z,21.92
2018-04-26T15:38:40.541Z,21.89
2018-04-26T15:41:13.514Z,21.92
2018-04-26T15:43:46.393Z,21.95
2018-04-26T15:46:18.873Z,21.94
2018-04-26T15:48:51.998Z,21.92
2018-04-26T15:51:25.825Z,21.93
2018-04-26T15:54:09.420Z,21.96
2018-04-26T15:56:59.008Z,21.95
2018-04-26T15:59:42.652Z,21.86
2018-04-26T16:02:31.785Z,21.83
2018-04-26T16:05:19.923Z,21.86
2018-04-26T16:08:08.252Z,21.93
2018-04-26T16:10:56.039Z,21.93
2018-04-26T16:13:43.525Z,21.93
2018-04-26T16:16:32.438Z,21.94
2018-04-26T16:19:20.411Z,22.02
2018-04-26T16:22:08.237Z,22.06
2018-04-26T16:24:56.426Z,22.10
2018-04-26T16:27:44.224Z,22.14
2018-04-26T16:30:26.751Z,22.20
2018-04-26T16:33:09.482Z,22.22
2018-04-26T16:35:52.809Z,22.25
2018-04-26T16:38:36.904Z,22.30
2018-04-26T16:41:08.838Z,22.33
2018-04-26T16:43:40.929Z,22.34
2018-04-26T16:46:13.536Z,22.38
2018-04-26T16:48:46.120Z,22.40
2018-04-26T16:51:20.237Z,22.41
2018-04-26T16:53:53.251Z,22.44
2018-04-26T16:56:25.813Z,22.46
2018-04-26T16:58:57.438Z,22.44
2018-04-26T17:01:29.094Z,22.43
2018-04-26T17:04:01.039Z,22.48
2018-04-26T17:06:33.023Z,22.46
2018-04-26T17:09:06.473Z,22.48
2018-04-26T17:11:40.056Z,22.52
2018-04-26T17:14:13.066Z,22.59
2018-04-26T17:16:46.930Z,22.61
2018-04-26T17:19:20.994Z,22.59
2018-04-26T17:21:56.510Z,22.56
2018-04-26T17:24:32.493Z,22.64
2018-04-26T17:27:06.399Z,22.69
2018-04-26T17:29:40.402Z,22.68
2018-04-26T17:32:13.756Z,22.71
2018-04-26T17:34:47.445Z,22.75
2018-04-26T17:37:20.380Z,22.81
2018-04-26T17:39:53.767Z,22.88
2018-04-26T17:42:27.722Z,22.93
2018-04-26T17:45:01.578Z,22.97
2018-04-26T17:47:34.454Z,23.04
2018-04-26T17:50:08.218Z,23.11
2018-04-26T17:52:42.134Z,23.19
2018-04-26T17:55:15.741Z,23.23
2018-04-26T17:57:49.276Z,23.25
2018-04-26T18:00:23.187Z,23.28
2018-04-26T18:02:58.218Z,23.35
2018-04-26T18:05:31.585Z,23.38
2018-04-26T18:08:05.576Z,23.43
2018-04-26T18:10:38.800Z,23.49
2018-04-26T18:13:12.409Z,23.53
2018-04-26T18:15:46.051Z,23.56
2018-04-26T18:18:20.164Z,23.58
2018-04-26T18:20:53.099Z,23.60
2018-04-26T18:23:26.457Z,23.62
2018-04-26T18:26:00.925Z,23.67
2018-04-26T18:28:33.945Z,23.72
2018-04-26T18:31:06.988Z,23.78
2018-04-26T18:33:39.916Z,23.79
2018-04-26T18:36:13.620Z,23.80
2018-04-26T18:38:47.934Z,23.84
2018-04-26T18:41:21.387Z,23.91
2018-04-26T18:43:55.408Z,23.98
2018-04-26T18:46:28.822Z,24.01
2018-04-26T18:49:00.846Z,24.09
2018-04-26T18:51:34.382Z,24.16
2018-04-26T18:54:08.030Z,24.21
2018-04-26T18:56:41.440Z,24.18
2018-04-26T18:59:15.035Z,24.23
2018-04-26T19:01:50.373Z,24.32
2018-04-26T19:04:23.509Z,24.37
2018-04-26T19:06:56.904Z,24.44
2018-04-26T19:09:30.433Z,24.44
2018-04-26T19:12:03.631Z,24.50
2018-04-26T19:14:37.301Z,24.59
2018-04-26T19:17:10.411Z,24.66
2018-04-26T19:19:44.024Z,24.72
2018-04-26T19:22:17.928Z,24.79
2018-04-26T19:24:51.386Z,24.79
2018-04-26T19:27:24.425Z,24.85
2018-04-26T19:29:58.832Z,24.91
2018-04-26T19:32:32.234Z,24.98
2018-04-26T19:35:05.200Z,25.05
2018-04-26T19:37:37.587Z,25.09
2018-04-26T19:40:10.435Z,25.11
2018-04-26T19:42:44.773Z,25.13
2018-04-26T19:45:18.466Z,25.12
2018-04-26T19:47:51.505Z,25.17
2018-04-26T19:50:24.923Z,25.25
2018-04-26T19:52:58.416Z,25.31
2018-04-26T19:55:32.434Z,25.38
2018-04-26T19:58:05.387Z,25.43
2018-04-26T20:00:39.387Z,25.45
2018-04-26T20:03:13.036Z,25.47
2018-04-26T20:05:46.811Z,25.48
2018-04-26T20:08:20.212Z,25.56
2018-04-26T20:10:53.306Z,25.65
2018-04-26T20:13:27.242Z,25.63
2018-04-26T20:17:31.520Z,25.74
2018-04-26T20:20:04.397Z,25.78
2018-04-26T20:22:37.519Z,25.82
2018-04-26T20:25:10.295Z,25.92
2018-04-26T20:27:43.660Z,26.01
2018-04-26T20:30:16.826Z,26.04
2018-04-26T20:32:48.232Z,26.06
2018-04-26T20:35:20.502Z,26.08
2018-04-26T20:37:53.388Z,26.09
2018-04-26T20:40:26.488Z,26.14
2018-04-26T20:42:59.578Z,26.20
2018-04-26T20:45:32.912Z,26.26
2018-04-26T20:48:06.749Z,26.35
2018-04-26T20:50:40.370Z,26.45
2018-04-26T20:53:13.574Z,26.55
2018-04-26T20:55:46.438Z,26.60
2018-04-26T20:58:19.547Z,26.68
2018-04-26T21:00:52.731Z,26.73
2018-04-26T21:03:25.697Z,26.80
2018-04-26T21:05:58.376Z,26.82
2018-04-26T21:08:31.110Z,26.91
2018-04-26T21:11:04.503Z,26.97
2018-04-26T21:13:37.694Z,27.03
2018-04-26T21:16:10.496Z,27.04
2018-04-26T21:18:43.018Z,27.11
2018-04-26T21:21:15.933Z,27.16
2018-04-26T21:23:49.295Z,27.22
2018-04-26T21:26:22.380Z,27.23
2018-04-26T21:28:55.606Z,27.24
2018-04-26T21:31:28.391Z,27.29
2018-04-26T21:34:00.921Z,27.36
2018-04-26T21:36:33.542Z,27.43
2018-04-26T21:39:06.974Z,27.53
2018-04-26T21:41:40.208Z,27.62
2018-04-26T21:44:13.507Z,27.67
2018-04-26T21:46:46.666Z,27.73
2018-04-26T21:49:17.419Z,27.76
2018-04-26T21:51:55.799Z,27.81
2018-04-26T21:54:33.081Z,27.91
2018-04-26T21:57:10.760Z,27.94
2018-04-26T21:59:49.853Z,27.97
2018-04-26T22:02:23.830Z,28.02
2018-04-26T22:04:58.200Z,28.08
2018-04-26T22:07:31.308Z,28.14
2018-04-26T22:10:04.398Z,28.20
2018-04-26T22:12:37.314Z,28.23
2018-04-26T22:15:10.387Z,28.32
2018-04-26T22:17:43.085Z,28.33
2018-04-26T22:20:16.097Z,28.39
2018-04-26T22:22:48.420Z,28.49
2018-04-26T22:25:21.610Z,28.55
2018-04-26T22:27:54.453Z,28.63
2018-04-26T22:30:27.071Z,28.68
2018-04-26T22:33:00.628Z,28.73
2018-04-26T22:35:33.762Z,28.75
2018-04-26T22:38:06.433Z,28.77
2018-04-26T22:40:39.928Z,28.73
2018-04-26T22:43:13.396Z,28.81
2018-04-26T22:45:46.414Z,28.94
2018-04-26T22:48:19.325Z,29.02
2018-04-26T22:50:52.418Z,29.07
2018-04-26T22:53:25.061Z,29.12
2018-04-26T22:55:58.407Z,29.15
2018-04-26T22:58:31.674Z,29.21
2018-04-26T23:01:03.779Z,29.25
2018-04-26T23:03:37.050Z,29.29
2018-04-26T23:06:10.833Z,29.26
2018-04-26T23:08:44.421Z,29.27
2018-04-26T23:11:16.814Z,29.34
2018-04-26T23:13:49.565Z,29.43
2018-04-26T23:16:21.417Z,29.50
2018-04-26T23:18:52.970Z,29.53
2018-04-26T23:23:03.968Z,29.56
2018-04-26T23:25:35.979Z,29.57
2018-04-26T23:28:07.549Z,29.60
2018-04-26T23:30:39.886Z,29.67
2018-04-26T23:33:11.778Z,29.69
2018-04-26T23:35:43.591Z,29.71
2018-04-26T23:38:15.118Z,29.74
2018-04-26T23:40:46.864Z,29.77
2018-04-26T23:43:17.533Z,29.78
2018-04-26T23:45:49.361Z,29.73
2018-04-26T23:48:21.705Z,29.74
2018-04-26T23:50:53.430Z,29.73
2018-04-26T23:53:25.055Z,29.74
2018-04-26T23:55:57.093Z,29.74
2018-04-26T23:58:28.836Z,29.72
